Time;durP1;ratioP1;P1;durP2;ratioP2;P2;SDS_P1;SDS_P2;PMS_P1;PMS_P2;Temp;Humidity;BMP_temperature;BMP_pressure;BME280_temperature;BME280_humidity;BME280_pressure;Samples;Min_cycle;Max_cycle;Signal;HPM_P1;HPM_P2
2021/06/16 00:02:19;;;;;;;7.83;5.80;;;13.10;99.90;;;;;;5093712;28;20267;-68
2021/06/16 00:04:49;;;;;;;16.03;5.80;;;13.00;99.90;;;;;;5093028;28;20278;-69
2021/06/16 00:07:16;;;;;;;10.67;5.90;;;13.10;99.90;;;;;;5092669;28;20185;-69
2021/06/16 00:09:44;;;;;;;14.30;6.17;;;13.20;99.90;;;;;;5093080;28;20261;-67
2021/06/16 00:12:12;;;;;;;10.73;6.40;;;13.30;99.90;;;;;;5094307;28;20185;-72
2021/06/16 00:14:39;;;;;;;8.67;5.57;;;13.40;99.90;;;;;;5092486;28;20174;-67
2021/06/16 00:17:07;;;;;;;10.80;5.77;;;13.50;99.90;;;;;;5093819;28;20231;-67
2021/06/16 00:19:36;;;;;;;10.90;5.30;;;13.60;99.90;;;;;;5090964;28;20182;-70
2021/06/16 00:22:04;;;;;;;8.90;5.60;;;13.60;99.90;;;;;;5088400;28;20305;-67
2021/06/16 00:24:32;;;;;;;8.37;5.33;;;13.60;99.90;;;;;;5087089;28;20177;-69
2021/06/16 00:27:00;;;;;;;7.67;4.57;;;13.60;99.90;;;;;;5093514;28;20221;-69
2021/06/16 00:29:28;;;;;;;11.17;5.07;;;13.70;99.90;;;;;;5093276;28;20182;-67
2021/06/16 00:31:55;;;;;;;9.73;4.83;;;13.70;99.90;;;;;;5093567;28;20280;-69
2021/06/16 00:34:23;;;;;;;13.10;5.77;;;13.80;99.90;;;;;;5092394;28;20222;-69
2021/06/16 00:36:50;;;;;;;8.97;5.50;;;14.00;99.90;;;;;;5092999;28;20183;-72
2021/06/16 00:39:17;;;;;;;9.90;5.47;;;14.10;99.90;;;;;;5092905;28;20175;-68
2021/06/16 00:41:45;;;;;;;10.07;5.03;;;14.20;99.90;;;;;;5089472;28;20219;-67
2021/06/16 00:44:12;;;;;;;9.57;5.10;;;14.20;99.90;;;;;;5092595;28;20629;-70
2021/06/16 00:46:40;;;;;;;7.27;3.67;;;14.30;99.90;;;;;;5092933;28;20201;-69
2021/06/16 00:49:08;;;;;;;10.03;4.23;;;14.30;99.90;;;;;;5089395;28;20190;-68
2021/06/16 00:51:35;;;;;;;9.63;4.70;;;14.40;99.90;;;;;;5089957;28;20186;-73
2021/06/16 00:54:09;;;;;;;9.70;3.93;;;14.60;99.90;;;;;;5091409;28;20190;-68
2021/06/16 00:56:39;;;;;;;7.03;4.40;;;14.60;99.90;;;;;;5091564;28;20194;-68
2021/06/16 00:59:07;;;;;;;8.97;5.13;;;14.70;99.90;;;;;;5091567;28;20732;-67
2021/06/16 01:01:40;;;;;;;9.30;4.40;;;14.80;99.90;;;;;;5091765;28;20314;-68
2021/06/16 01:04:11;;;;;;;12.83;4.07;;;14.80;99.90;;;;;;5090674;28;20253;-68
2021/06/16 01:06:52;;;;;;;9.03;4.20;;;15.10;99.90;;;;;;5091782;28;20171;-70
2021/06/16 01:09:32;;;;;;;7.50;4.30;;;15.20;99.90;;;;;;5091366;28;20701;-73
2021/06/16 01:12:07;;;;;;;8.40;3.97;;;15.40;99.90;;;;;;5092358;28;20182;-71
2021/06/16 01:14:58;;;;;;;16.33;4.20;;;15.60;99.90;;;;;;5090281;28;20167;-67
2021/06/16 01:17:56;;;;;;;8.63;4.07;;;15.70;99.90;;;;;;5118872;27;20199;-74
2021/06/16 01:20:42;;;;;;;8.97;4.13;;;15.90;99.90;;;;;;5082390;28;20218;-70
2021/06/16 01:23:10;;;;;;;6.80;3.80;;;16.00;99.90;;;;;;5092217;28;20181;-69
2021/06/16 01:25:49;;;;;;;9.47;4.30;;;16.00;99.90;;;;;;5091518;28;20186;-68
2021/06/16 01:28:21;;;;;;;4.23;3.03;;;16.20;99.90;;;;;;5089623;28;20197;-73
2021/06/16 01:30:50;;;;;;;5.53;3.27;;;16.20;99.90;;;;;;5090958;28;20276;-68
2021/06/16 01:33:18;;;;;;;5.03;3.10;;;16.40;99.90;;;;;;5089851;28;20218;-66
2021/06/16 01:35:47;;;;;;;5.93;3.37;;;16.50;99.90;;;;;;5091865;28;20201;-67
2021/06/16 01:38:18;;;;;;;4.50;3.13;;;17.00;99.90;;;;;;5092770;28;20629;-67
2021/06/16 01:40:49;;;;;;;4.03;2.90;;;17.00;99.90;;;;;;5091694;28;20536;-75
2021/06/16 01:43:18;;;;;;;10.00;3.07;;;17.10;99.90;;;;;;5088078;28;20276;-68
2021/06/16 01:45:47;;;;;;;6.77;3.63;;;17.20;99.90;;;;;;5089635;28;20182;-67
2021/06/16 01:48:17;;;;;;;8.90;3.70;;;17.20;99.90;;;;;;5092691;28;20196;-70
2021/06/16 01:50:49;;;;;;;5.67;3.07;;;17.20;99.90;;;;;;5086332;28;20238;-70
2021/06/16 01:53:18;;;;;;;9.20;3.13;;;17.60;99.90;;;;;;5091685;28;20675;-72
2021/06/16 01:55:47;;;;;;;4.70;2.70;;;17.60;99.90;;;;;;5072519;28;20183;-68
2021/06/16 01:58:18;;;;;;;6.93;2.90;;;17.60;99.90;;;;;;5085359;28;20561;-69
2021/06/16 02:00:47;;;;;;;5.97;3.40;;;17.70;99.90;;;;;;5091890;28;20206;-69
2021/06/16 02:03:15;;;;;;;10.10;3.00;;;18.00;99.90;;;;;;5091927;28;20298;-67
2021/06/16 02:05:42;;;;;;;5.53;2.73;;;18.30;99.90;;;;;;5089767;28;20653;-72
2021/06/16 02:08:19;;;;;;;5.23;3.13;;;18.40;99.90;;;;;;5106477;28;20241;-71
2021/06/16 02:10:49;;;;;;;7.27;2.73;;;18.60;99.90;;;;;;5076320;28;20635;-72
2021/06/16 02:13:27;;;;;;;4.17;2.67;;;18.60;99.90;;;;;;5092400;28;20179;-69
2021/06/16 02:16:02;;;;;;;5.10;2.80;;;18.80;99.90;;;;;;5085191;28;20178;-73
2021/06/16 02:18:44;;;;;;;7.10;2.50;;;19.10;99.90;;;;;;5091850;28;20183;-71
2021/06/16 02:21:12;;;;;;;94.80;8.67;;;19.20;99.90;;;;;;5092531;28;20246;-71
2021/06/16 02:23:41;;;;;;;14.23;3.27;;;19.10;99.90;;;;;;5102448;28;20186;-70
2021/06/16 02:26:11;;;;;;;9.97;3.23;;;19.50;99.90;;;;;;5096016;28;20197;-72
2021/06/16 02:28:39;;;;;;;10.43;3.67;;;19.40;99.90;;;;;;5095990;28;20178;-72
2021/06/16 02:31:07;;;;;;;7.67;2.90;;;19.40;99.90;;;;;;5096235;28;20545;-71
2021/06/16 02:33:35;;;;;;;6.97;3.17;;;19.40;99.90;;;;;;5096009;28;20230;-74
2021/06/16 02:36:03;;;;;;;42.17;5.63;;;19.20;99.90;;;;;;5096151;28;20663;-74
2021/06/16 02:38:34;;;;;;;10.60;2.90;;;19.00;99.90;;;;;;5097704;28;20672;-67
2021/06/16 02:41:06;;;;;;;5.20;2.60;;;19.00;99.90;;;;;;5096367;28;20304;-68
2021/06/16 02:43:36;;;;;;;3.03;2.03;;;19.10;99.90;;;;;;5092977;28;20183;-70
2021/06/16 02:46:05;;;;;;;8.53;3.00;;;19.20;99.90;;;;;;5093384;28;20266;-67
2021/06/16 02:48:32;;;;;;;5.00;3.30;;;19.40;99.90;;;;;;5094980;28;20183;-70
2021/06/16 02:51:00;;;;;;;8.63;3.00;;;19.50;99.90;;;;;;5096001;28;20183;-71
2021/06/16 02:53:31;;;;;;;10.43;3.30;;;19.60;99.90;;;;;;5095684;28;20226;-69
2021/06/16 02:56:03;;;;;;;10.00;2.37;;;19.80;99.90;;;;;;5096223;28;20225;-68
2021/06/16 02:58:34;;;;;;;4.97;2.53;;;19.80;99.90;;;;;;5095540;28;20235;-69
2021/06/16 03:01:03;;;;;;;5.67;2.80;;;19.80;99.90;;;;;;5095538;28;20218;-67
2021/06/16 03:03:31;;;;;;;13.77;3.57;;;19.70;99.90;;;;;;5095548;28;20171;-66
2021/06/16 03:06:01;;;;;;;14.30;5.93;;;19.80;99.90;;;;;;5101591;28;20185;-74
2021/06/16 03:08:29;;;;;;;28.00;10.67;;;19.70;99.90;;;;;;5095720;28;20704;-71
2021/06/16 03:11:00;;;;;;;50.97;16.57;;;19.70;99.90;;;;;;5082104;28;20191;-72
2021/06/16 03:13:29;;;;;;;28.23;11.27;;;19.70;99.90;;;;;;5095691;28;20228;-75
2021/06/16 03:15:58;;;;;;;6.53;2.97;;;19.60;99.90;;;;;;5089348;28;20179;-70
2021/06/16 03:18:28;;;;;;;8.17;3.77;;;19.60;99.80;;;;;;5094938;28;20266;-71
2021/06/16 03:20:58;;;;;;;13.57;5.10;;;19.80;99.70;;;;;;5095637;28;20202;-72
2021/06/16 03:23:28;;;;;;;5.37;2.87;;;19.90;99.80;;;;;;5085174;28;20546;-69
2021/06/16 03:25:57;;;;;;;9.40;2.40;;;19.90;99.90;;;;;;5095097;28;20177;-66
2021/06/16 03:28:29;;;;;;;5.43;2.20;;;19.70;99.90;;;;;;5094901;28;20266;-67
2021/06/16 03:31:07;;;;;;;12.90;2.47;;;19.70;99.90;;;;;;5095468;28;20174;-67
2021/06/16 03:33:35;;;;;;;10.90;2.63;;;20.10;99.90;;;;;;5082436;28;20227;-71
2021/06/16 03:36:02;;;;;;;5.67;2.20;;;20.30;99.90;;;;;;5093029;28;20178;-67
2021/06/16 03:38:31;;;;;;;6.90;2.10;;;20.60;99.90;;;;;;5082568;28;20180;-70
2021/06/16 03:41:01;;;;;;;7.67;2.67;;;20.40;99.90;;;;;;5085803;28;20202;-67
2021/06/16 03:43:29;;;;;;;7.27;2.00;;;20.60;99.90;;;;;;5093337;28;20178;-69
2021/06/16 03:45:58;;;;;;;3.67;1.40;;;20.50;99.90;;;;;;5094632;28;20220;-69
2021/06/16 03:48:27;;;;;;;5.87;1.13;;;20.30;99.90;;;;;;5093881;28;20182;-68
2021/06/16 03:50:57;;;;;;;1.87;0.97;;;20.20;99.90;;;;;;5095119;28;20163;-70
2021/06/16 03:53:24;;;;;;;2.83;1.27;;;20.50;99.90;;;;;;5094833;28;20312;-69
2021/06/16 03:55:52;;;;;;;3.33;1.17;;;20.70;99.90;;;;;;5094633;28;20178;-70
2021/06/16 03:58:20;;;;;;;4.27;1.70;;;20.60;99.90;;;;;;5094523;28;20220;-68
2021/06/16 04:00:48;;;;;;;2.77;1.17;;;20.80;99.90;;;;;;5093840;28;20285;-69
2021/06/16 04:03:21;;;;;;;3.10;1.00;;;21.10;99.90;;;;;;5094437;28;20669;-67
2021/06/16 04:05:49;;;;;;;6.87;1.40;;;20.90;99.90;;;;;;5092506;28;20235;-66
2021/06/16 04:08:17;;;;;;;2.67;1.00;;;20.70;99.90;;;;;;5076074;28;20182;-66
2021/06/16 04:10:46;;;;;;;6.50;1.00;;;20.90;99.90;;;;;;5093693;28;20189;-66
2021/06/16 04:13:14;;;;;;;6.03;1.47;;;20.60;99.90;;;;;;5094349;28;20530;-69
2021/06/16 04:15:41;;;;;;;3.97;1.10;;;20.80;99.90;;;;;;5094641;28;20182;-67
2021/06/16 04:18:09;;;;;;;3.17;1.10;;;21.00;99.90;;;;;;5083072;28;20525;-69
2021/06/16 04:20:37;;;;;;;4.73;1.60;;;21.10;99.90;;;;;;5093477;28;20207;-70
2021/06/16 04:23:04;;;;;;;6.23;1.20;;;21.30;99.90;;;;;;5094076;28;20257;-68
2021/06/16 04:25:31;;;;;;;3.87;1.10;;;22.00;99.60;;;;;;5093782;28;20198;-67
2021/06/16 04:27:59;;;;;;;2.57;1.00;;;22.30;99.30;;;;;;5094162;28;20179;-70
2021/06/16 04:30:27;;;;;;;5.07;1.07;;;22.50;98.10;;;;;;5093909;28;20200;-65
2021/06/16 04:32:55;;;;;;;3.40;1.07;;;22.30;98.30;;;;;;5093747;28;20275;-68
2021/06/16 04:35:22;;;;;;;1.50;0.87;;;22.90;97.70;;;;;;5093703;28;20314;-66
2021/06/16 04:37:50;;;;;;;5.30;1.10;;;22.80;97.40;;;;;;5092033;28;20190;-68
2021/06/16 04:40:18;;;;;;;3.63;1.00;;;22.60;96.90;;;;;;5092700;28;20202;-70
2021/06/16 04:42:45;;;;;;;5.07;1.20;;;23.20;96.90;;;;;;5093760;28;20170;-68
2021/06/16 04:45:13;;;;;;;2.40;0.90;;;23.20;96.70;;;;;;5091973;28;20264;-70
2021/06/16 04:47:41;;;;;;;2.27;1.13;;;23.10;96.10;;;;;;5093428;28;20589;-69
2021/06/16 04:50:11;;;;;;;2.60;1.10;;;22.60;97.30;;;;;;5092051;28;20182;-70
2021/06/16 04:52:41;;;;;;;1.43;0.87;;;22.70;97.40;;;;;;5093225;28;20223;-67
2021/06/16 04:55:10;;;;;;;4.90;1.00;;;22.90;97.00;;;;;;5090763;28;20197;-70
2021/06/16 04:57:38;;;;;;;4.53;1.23;;;22.70;96.90;;;;;;5080723;28;20182;-70
2021/06/16 05:00:08;;;;;;;1.23;1.00;;;22.80;97.20;;;;;;5092206;28;20186;-70
2021/06/16 05:02:36;;;;;;;3.20;1.00;;;22.80;97.10;;;;;;5091600;28;20549;-69
2021/06/16 05:05:05;;;;;;;3.93;1.20;;;22.40;97.70;;;;;;5092051;28;20182;-70
2021/06/16 05:07:33;;;;;;;6.60;1.10;;;22.20;98.10;;;;;;5092559;28;20188;-67
2021/06/16 05:10:00;;;;;;;4.17;1.33;;;21.40;99.20;;;;;;5092753;28;20641;-67
2021/06/16 05:12:27;;;;;;;4.03;0.90;;;21.10;99.90;;;;;;5091037;28;20274;-69
2021/06/16 05:14:55;;;;;;;1.50;1.00;;;20.90;99.90;;;;;;5090523;28;20228;-69
2021/06/16 05:17:22;;;;;;;2.73;1.00;;;20.70;99.90;;;;;;5091453;28;20203;-70
2021/06/16 05:19:56;;;;;;;2.27;1.37;;;20.40;99.90;;;;;;5092525;28;20182;-71
2021/06/16 05:22:24;;;;;;;1.50;0.93;;;20.40;99.90;;;;;;5090215;28;20236;-68
2021/06/16 05:24:53;;;;;;;2.30;1.30;;;20.20;99.90;;;;;;5092229;28;20202;-68
2021/06/16 05:27:20;;;;;;;3.90;0.93;;;19.90;99.90;;;;;;5092917;28;20260;-66
2021/06/16 05:29:51;;;;;;;5.37;1.67;;;19.80;99.90;;;;;;5098170;28;20190;-67
2021/06/16 05:32:18;;;;;;;4.37;1.30;;;19.70;99.90;;;;;;5102281;28;20213;-69
2021/06/16 05:34:45;;;;;;;3.17;1.30;;;19.50;99.90;;;;;;5092489;28;20217;-66
2021/06/16 05:37:13;;;;;;;3.03;1.23;;;19.40;99.90;;;;;;5089863;28;20186;-65
2021/06/16 05:39:41;;;;;;;2.33;1.00;;;19.30;99.90;;;;;;5087895;28;20672;-67
2021/06/16 05:42:08;;;;;;;4.13;1.20;;;19.30;99.90;;;;;;5092842;28;20253;-67
2021/06/16 05:44:36;;;;;;;2.70;1.60;;;19.10;99.90;;;;;;5089565;28;20186;-67
2021/06/16 05:47:04;;;;;;;8.80;1.10;;;19.10;99.90;;;;;;5090101;28;20178;-64
2021/06/16 05:49:32;;;;;;;3.63;1.43;;;19.30;99.90;;;;;;5090197;28;20179;-68
2021/06/16 05:51:59;;;;;;;2.73;1.17;;;19.70;99.90;;;;;;5092541;28;20206;-68
2021/06/16 05:54:27;;;;;;;6.73;1.50;;;20.40;99.90;;;;;;5094260;28;20185;-69
2021/06/16 05:56:55;;;;;;;4.67;1.40;;;20.80;99.90;;;;;;5090018;28;20689;-67
2021/06/16 05:59:22;;;;;;;3.97;1.40;;;20.70;99.90;;;;;;5090586;28;20217;-67
2021/06/16 06:01:53;;;;;;;3.77;1.30;;;20.90;99.90;;;;;;5091038;28;20740;-67
2021/06/16 06:04:20;;;;;;;10.40;2.03;;;20.90;99.90;;;;;;5090516;28;20612;-71
2021/06/16 06:06:48;;;;;;;3.07;1.40;;;20.90;99.90;;;;;;5090815;28;20636;-71
2021/06/16 06:09:15;;;;;;;2.90;1.30;;;20.40;99.90;;;;;;5087451;28;20183;-68
2021/06/16 06:11:43;;;;;;;2.83;1.00;;;19.90;99.90;;;;;;5091267;28;20197;-69
2021/06/16 06:14:10;;;;;;;2.07;1.03;;;19.50;99.90;;;;;;5091798;28;20191;-70
2021/06/16 06:16:38;;;;;;;2.53;0.93;;;19.10;99.90;;;;;;5090401;28;20247;-69
2021/06/16 06:19:05;;;;;;;8.50;1.87;;;18.70;99.90;;;;;;5120042;27;20186;-69
2021/06/16 06:21:33;;;;;;;3.10;1.37;;;18.60;99.90;;;;;;5084672;28;20222;-66
2021/06/16 06:24:01;;;;;;;5.93;1.70;;;18.40;99.90;;;;;;5088533;28;20339;-68
2021/06/16 06:26:29;;;;;;;9.70;1.80;;;18.20;99.90;;;;;;5086063;28;20312;-66
2021/06/16 06:28:56;;;;;;;7.50;1.50;;;18.00;99.90;;;;;;5087456;28;20652;-67
2021/06/16 06:31:25;;;;;;;5.20;1.40;;;18.00;99.90;;;;;;5088781;28;20170;-70
2021/06/16 06:33:52;;;;;;;10.43;1.40;;;17.80;99.90;;;;;;5088277;28;20222;-67
2021/06/16 06:36:20;;;;;;;6.90;1.87;;;17.80;99.90;;;;;;5088997;28;20235;-67
2021/06/16 06:38:50;;;;;;;8.47;2.40;;;17.80;99.90;;;;;;5090864;28;20279;-66
2021/06/16 06:41:18;;;;;;;4.83;1.57;;;17.70;99.90;;;;;;5088667;28;20205;-68
2021/06/16 06:43:46;;;;;;;5.73;1.70;;;17.70;99.90;;;;;;5086213;28;20729;-68
2021/06/16 06:46:13;;;;;;;7.07;1.70;;;17.60;99.90;;;;;;5090864;28;20189;-66
2021/06/16 06:48:41;;;;;;;4.83;1.33;;;17.60;99.90;;;;;;5089407;28;20228;-67
2021/06/16 06:51:09;;;;;;;4.83;1.50;;;17.50;99.90;;;;;;5090747;28;20189;-66
2021/06/16 06:53:36;;;;;;;11.00;1.80;;;17.50;99.90;;;;;;5087711;28;20188;-67
2021/06/16 06:56:04;;;;;;;6.97;1.60;;;17.50;99.90;;;;;;5092184;28;20177;-67
2021/06/16 06:58:31;;;;;;;3.83;1.37;;;17.40;99.90;;;;;;5092954;28;20193;-68
2021/06/16 07:00:58;;;;;;;7.33;1.83;;;17.40;99.90;;;;;;5091424;28;20349;-66
2021/06/16 07:03:26;;;;;;;3.93;1.20;;;17.30;99.90;;;;;;5090216;28;20206;-66
2021/06/16 07:05:55;;;;;;;7.10;1.87;;;17.30;99.90;;;;;;5090199;28;20192;-65
2021/06/16 07:08:22;;;;;;;5.20;1.53;;;17.30;99.90;;;;;;5091295;28;20662;-67
2021/06/16 07:10:50;;;;;;;8.23;1.30;;;17.20;99.90;;;;;;5091015;28;20190;-66
2021/06/16 07:13:17;;;;;;;10.73;1.80;;;17.20;99.90;;;;;;5094424;28;20276;-66
2021/06/16 07:15:45;;;;;;;3.10;1.77;;;17.20;99.90;;;;;;5095413;28;20288;-66
2021/06/16 07:18:12;;;;;;;5.87;1.20;;;17.20;99.90;;;;;;5091238;28;20249;-71
2021/06/16 07:20:40;;;;;;;4.73;1.40;;;17.10;99.90;;;;;;5092175;28;20224;-67
2021/06/16 07:23:07;;;;;;;4.10;1.30;;;17.10;99.90;;;;;;5093064;28;20808;-67
2021/06/16 07:25:34;;;;;;;5.27;1.50;;;17.00;99.90;;;;;;5093466;28;20215;-67
2021/06/16 07:28:05;;;;;;;7.30;1.50;;;17.00;99.90;;;;;;5100069;28;20189;-66
2021/06/16 07:30:32;;;;;;;2.97;1.40;;;16.90;99.90;;;;;;5093342;28;20606;-67
2021/06/16 07:33:00;;;;;;;4.67;1.50;;;16.90;99.90;;;;;;5089883;28;20217;-69
2021/06/16 07:35:27;;;;;;;3.47;1.20;;;16.90;99.90;;;;;;5093216;28;20538;-68
2021/06/16 07:37:55;;;;;;;12.43;1.77;;;16.90;99.90;;;;;;5090771;28;20723;-71
2021/06/16 07:40:22;;;;;;;5.03;1.43;;;16.90;99.90;;;;;;5091219;28;20231;-65
2021/06/16 07:42:50;;;;;;;3.07;1.63;;;16.80;99.90;;;;;;5093282;28;20185;-66
2021/06/16 07:45:17;;;;;;;3.23;1.50;;;16.80;99.90;;;;;;5094879;28;20174;-66
2021/06/16 07:47:44;;;;;;;8.07;1.67;;;16.80;99.90;;;;;;5094769;28;20186;-67
2021/06/16 07:50:17;;;;;;;4.57;1.50;;;16.80;99.90;;;;;;5094927;28;20192;-71
2021/06/16 07:52:44;;;;;;;5.70;1.87;;;16.80;99.90;;;;;;5093459;28;20661;-69
2021/06/16 07:55:12;;;;;;;5.33;1.80;;;16.90;99.90;;;;;;5095572;28;20186;-72
2021/06/16 07:57:40;;;;;;;4.23;2.17;;;16.90;99.90;;;;;;5094590;28;20191;-70
2021/06/16 08:00:08;;;;;;;6.17;2.00;;;16.90;99.90;;;;;;5095081;28;20507;-69
2021/06/16 08:02:37;;;;;;;10.47;2.40;;;16.90;99.90;;;;;;5095159;28;20992;-67
2021/06/16 08:05:05;;;;;;;5.23;2.27;;;16.90;99.90;;;;;;5095683;28;20565;-70
2021/06/16 08:07:33;;;;;;;7.67;2.27;;;16.90;99.90;;;;;;5095603;28;20182;-68
2021/06/16 08:10:01;;;;;;;8.50;2.90;;;16.90;99.90;;;;;;5102061;28;20195;-70
2021/06/16 08:12:28;;;;;;;7.47;3.37;;;16.90;99.90;;;;;;5102375;28;20216;-70
2021/06/16 08:14:58;;;;;;;8.07;3.50;;;16.90;99.90;;;;;;5093401;28;20648;-72
2021/06/16 08:17:26;;;;;;;5.83;3.10;;;16.90;99.90;;;;;;5094631;28;20178;-68
2021/06/16 08:19:53;;;;;;;11.90;2.83;;;16.90;99.90;;;;;;5093555;28;20486;-68
2021/06/16 08:22:23;;;;;;;8.80;2.10;;;16.90;99.90;;;;;;5094363;28;20230;-71
2021/06/16 08:24:56;;;;;;;6.40;2.10;;;16.90;99.90;;;;;;5086547;28;20198;-70
2021/06/16 08:27:33;;;;;;;4.77;1.80;;;17.00;99.90;;;;;;5087500;28;20306;-69
2021/06/16 08:30:01;;;;;;;5.40;1.70;;;17.00;99.90;;;;;;5092038;28;20208;-70
2021/06/16 08:32:28;;;;;;;5.17;1.57;;;17.00;99.90;;;;;;5093842;28;20219;-68
2021/06/16 08:34:56;;;;;;;3.83;2.03;;;17.00;99.90;;;;;;5089598;28;20176;-66
2021/06/16 08:37:23;;;;;;;8.33;2.07;;;17.00;99.90;;;;;;5098641;28;20178;-72
2021/06/16 08:39:51;;;;;;;4.50;1.57;;;17.00;99.90;;;;;;5094070;28;20667;-66
2021/06/16 08:42:18;;;;;;;6.40;1.70;;;16.90;99.90;;;;;;5093518;28;20213;-67
2021/06/16 08:44:46;;;;;;;5.00;1.87;;;16.90;99.90;;;;;;5094240;28;20270;-66
2021/06/16 08:47:15;;;;;;;6.33;2.30;;;16.90;99.90;;;;;;5094019;28;20209;-65
2021/06/16 08:49:42;;;;;;;5.20;2.20;;;16.90;99.90;;;;;;5094251;28;20174;-66
2021/06/16 08:52:10;;;;;;;5.07;2.20;;;16.90;99.90;;;;;;5103874;28;20328;-67
2021/06/16 08:54:37;;;;;;;6.57;2.10;;;16.90;99.90;;;;;;5097079;28;20277;-68
2021/06/16 08:57:05;;;;;;;6.50;2.30;;;17.00;99.90;;;;;;5094007;28;20176;-65
2021/06/16 08:59:32;;;;;;;4.93;2.33;;;17.00;99.90;;;;;;5094156;28;20185;-66
2021/06/16 09:02:00;;;;;;;5.93;2.13;;;16.90;99.90;;;;;;5093495;28;20209;-68
2021/06/16 09:04:51;;;;;;;4.90;1.77;;;16.90;99.90;;;;;;5093512;28;20219;-65
2021/06/16 09:07:20;;;;;;;8.17;2.00;;;16.80;99.90;;;;;;5089560;28;20198;-65
2021/06/16 09:09:49;;;;;;;4.60;1.90;;;16.70;99.90;;;;;;5093632;28;20172;-68
2021/06/16 09:12:30;;;;;;;5.73;2.00;;;16.60;99.90;;;;;;5093058;28;20195;-69
2021/06/16 09:14:57;;;;;;;6.73;2.40;;;16.50;99.90;;;;;;5093444;28;20180;-65
2021/06/16 09:17:25;;;;;;;10.10;5.03;;;16.50;99.90;;;;;;5093115;28;20593;-71
2021/06/16 09:20:00;;;;;;;12.23;4.07;;;16.40;99.90;;;;;;5093705;28;20168;-67
2021/06/16 09:22:34;;;;;;;7.67;3.67;;;16.40;99.90;;;;;;5090052;28;20242;-68
2021/06/16 09:25:07;;;;;;;8.73;2.87;;;16.30;99.90;;;;;;5097531;28;20181;-66
2021/06/16 09:27:50;;;;;;;8.60;2.53;;;16.20;99.90;;;;;;5093344;28;20180;-67
2021/06/16 09:30:23;;;;;;;7.10;2.37;;;16.20;99.90;;;;;;5092808;28;20790;-67
2021/06/16 09:32:58;;;;;;;4.17;1.87;;;16.10;99.90;;;;;;5088267;28;20256;-68
2021/06/16 09:35:28;;;;;;;4.80;1.60;;;16.00;99.90;;;;;;5088102;28;20183;-69
2021/06/16 09:37:57;;;;;;;7.40;2.20;;;16.00;99.90;;;;;;5090150;28;20176;-67
2021/06/16 09:40:45;;;;;;;4.70;2.00;;;15.90;99.90;;;;;;5095168;28;20185;-70
2021/06/16 09:43:16;;;;;;;7.17;2.10;;;15.90;99.90;;;;;;5092890;28;20178;-70
2021/06/16 09:45:46;;;;;;;6.13;2.03;;;15.80;99.90;;;;;;5092546;28;20191;-69
2021/06/16 09:48:21;;;;;;;8.80;5.87;;;15.80;99.90;;;;;;5092483;28;20181;-73
2021/06/16 09:50:53;;;;;;;12.07;6.77;;;15.70;99.90;;;;;;5092367;28;20181;-74
2021/06/16 09:53:21;;;;;;;7.27;2.93;;;15.70;99.90;;;;;;5077186;28;20587;-73
2021/06/16 09:55:48;;;;;;;4.60;1.90;;;15.70;99.90;;;;;;5091710;28;20174;-72
2021/06/16 09:58:17;;;;;;;4.03;2.13;;;15.70;99.90;;;;;;5092602;28;20185;-72
2021/06/16 10:00:55;;;;;;;4.93;1.67;;;15.70;99.90;;;;;;5092162;28;20540;-72
2021/06/16 10:03:24;;;;;;;2.47;1.50;;;15.80;99.90;;;;;;5092322;28;20270;-71
2021/06/16 10:06:14;;;;;;;4.83;1.60;;;15.80;99.90;;;;;;5092595;28;20657;-72
2021/06/16 10:08:50;;;;;;;3.23;1.40;;;15.70;99.90;;;;;;5089567;28;20185;-73
2021/06/16 10:11:28;;;;;;;1.90;1.37;;;15.80;99.90;;;;;;5102023;28;20181;-71
2021/06/16 10:13:55;;;;;;;2.60;1.47;;;15.70;99.90;;;;;;5092558;28;20201;-72
2021/06/16 10:16:23;;;;;;;9.43;2.10;;;15.70;99.90;;;;;;5092323;28;20192;-69
2021/06/16 10:18:51;;;;;;;5.67;2.17;;;15.70;99.90;;;;;;5091984;28;20189;-72
2021/06/16 10:21:20;;;;;;;5.37;1.90;;;15.70;99.90;;;;;;5092521;28;20206;-71
2021/06/16 10:23:48;;;;;;;3.47;1.50;;;15.60;99.90;;;;;;5092637;28;20185;-70
2021/06/16 10:26:27;;;;;;;4.87;1.83;;;15.60;99.90;;;;;;5088899;28;20198;-72
2021/06/16 10:29:00;;;;;;;3.60;2.10;;;15.50;99.90;;;;;;5092747;28;20283;-71
2021/06/16 10:31:45;;;;;;;5.00;2.10;;;15.50;99.90;;;;;;5086004;28;20170;-72
2021/06/16 10:34:13;;;;;;;2.90;1.70;;;15.50;99.90;;;;;;5091817;28;20234;-70
2021/06/16 10:37:00;;;;;;;4.73;1.60;;;15.60;99.90;;;;;;5090702;28;20182;-72
2021/06/16 10:39:27;;;;;;;6.63;1.30;;;15.60;99.90;;;;;;5091781;28;20182;-71
2021/06/16 10:41:59;;;;;;;4.40;1.50;;;15.80;99.90;;;;;;5092406;28;20215;-71
2021/06/16 10:44:29;;;;;;;4.73;1.50;;;15.80;99.90;;;;;;5094225;28;20636;-72
2021/06/16 10:47:01;;;;;;;5.90;2.00;;;15.80;99.90;;;;;;5095277;28;20190;-72
2021/06/16 10:49:47;;;;;;;6.40;1.67;;;15.80;99.90;;;;;;5096269;28;20570;-72
2021/06/16 10:52:16;;;;;;;2.40;1.40;;;15.80;99.90;;;;;;5084024;28;20190;-69
2021/06/16 10:55:01;;;;;;;3.53;1.83;;;15.80;99.90;;;;;;5094687;28;20187;-69
2021/06/16 10:57:33;;;;;;;2.93;1.40;;;15.80;99.90;;;;;;5096431;28;20183;-69
2021/06/16 11:00:05;;;;;;;3.90;1.60;;;15.80;99.90;;;;;;5095484;28;20180;-71
2021/06/16 11:02:34;;;;;;;4.23;1.57;;;15.80;99.90;;;;;;5089829;28;20215;-66
2021/06/16 11:05:20;;;;;;;2.43;1.50;;;15.80;99.90;;;;;;5094849;28;20171;-71
2021/06/16 11:07:48;;;;;;;5.80;1.77;;;15.90;99.90;;;;;;5095511;28;20180;-67
2021/06/16 11:10:15;;;;;;;8.03;1.60;;;15.90;99.90;;;;;;5091008;28;20534;-69
2021/06/16 11:12:54;;;;;;;6.23;1.53;;;15.90;99.90;;;;;;5095720;28;20546;-68
2021/06/16 11:15:28;;;;;;;4.23;1.53;;;15.90;99.90;;;;;;5094825;28;20178;-68
2021/06/16 11:18:01;;;;;;;2.80;1.40;;;15.90;99.90;;;;;;5095212;28;20174;-69
2021/06/16 11:20:37;;;;;;;3.43;1.67;;;15.90;99.90;;;;;;5094999;28;20649;-68
2021/06/16 11:23:06;;;;;;;2.43;1.80;;;15.90;99.90;;;;;;5095094;28;20171;-70
2021/06/16 11:25:39;;;;;;;3.63;2.00;;;15.80;99.90;;;;;;5095317;28;20191;-67
2021/06/16 11:28:36;;;;;;;5.33;2.20;;;15.80;99.90;;;;;;5094283;28;20569;-67
2021/06/16 11:31:06;;;;;;;4.20;1.80;;;15.80;99.90;;;;;;5090420;28;20180;-72
2021/06/16 11:33:44;;;;;;;6.33;2.30;;;15.80;99.90;;;;;;5095093;28;20232;-69
2021/06/16 11:36:15;;;;;;;5.20;2.00;;;15.80;99.90;;;;;;5095067;28;20189;-68
2021/06/16 11:38:53;;;;;;;6.60;2.30;;;15.90;99.90;;;;;;5094514;28;20192;-70
2021/06/16 11:41:23;;;;;;;3.77;1.90;;;15.90;99.90;;;;;;5090975;28;20240;-67
2021/06/16 11:44:09;;;;;;;4.97;1.97;;;15.80;99.90;;;;;;5095230;28;20265;-73
2021/06/16 11:46:39;;;;;;;7.03;2.00;;;15.80;99.90;;;;;;5094165;28;20665;-71
2021/06/16 11:49:12;;;;;;;3.57;1.93;;;15.80;99.90;;;;;;5094295;28;20179;-68
2021/06/16 11:51:49;;;;;;;8.07;1.80;;;16.10;99.90;;;;;;5094723;28;20289;-65
2021/06/16 11:54:25;;;;;;;7.80;2.07;;;16.20;99.90;;;;;;5094447;28;20185;-68
2021/06/16 11:57:09;;;;;;;5.60;1.77;;;16.20;99.90;;;;;;5089559;28;20606;-65
2021/06/16 11:59:48;;;;;;;4.13;2.17;;;16.30;99.90;;;;;;5088553;28;20186;-65
2021/06/16 12:02:25;;;;;;;8.00;2.20;;;16.20;99.90;;;;;;5085776;28;20553;-69
2021/06/16 12:05:08;;;;;;;7.43;2.20;;;16.20;99.90;;;;;;5080377;28;20170;-68
2021/06/16 12:07:45;;;;;;;6.17;2.10;;;16.20;99.90;;;;;;5094544;28;20174;-67
2021/06/16 12:10:25;;;;;;;10.43;2.63;;;16.10;99.90;;;;;;5091415;28;20197;-67
2021/06/16 12:12:54;;;;;;;10.03;2.40;;;16.10;99.90;;;;;;5090586;28;20648;-69
2021/06/16 12:15:23;;;;;;;7.37;2.30;;;16.10;99.90;;;;;;5083253;28;20188;-67
2021/06/16 12:17:54;;;;;;;6.43;2.00;;;15.90;99.90;;;;;;5094034;28;20203;-76
2021/06/16 12:20:23;;;;;;;7.73;2.40;;;15.80;99.90;;;;;;5091695;28;20381;-71
2021/06/16 12:22:51;;;;;;;10.77;2.70;;;15.70;99.90;;;;;;5090197;28;20190;-74
2021/06/16 12:25:35;;;;;;;4.17;2.63;;;15.60;99.90;;;;;;5094728;28;20310;-68
2021/06/16 12:28:03;;;;;;;6.60;3.40;;;15.40;99.90;;;;;;5080732;28;20226;-68
2021/06/16 12:30:35;;;;;;;12.63;4.67;;;14.90;99.90;;;;;;5094336;28;20282;-67
2021/06/16 12:33:18;;;;;;;7.97;4.73;;;14.50;99.90;;;;;;5084055;28;20260;-71
2021/06/16 12:36:07;;;;;;;10.27;4.33;;;14.30;99.90;;;;;;5090091;28;20529;-76
2021/06/16 12:38:42;;;;;;;11.23;5.00;;;14.20;99.90;;;;;;5090250;28;20190;-78
2021/06/16 12:41:34;;;;;;;5.73;3.73;;;14.10;99.90;;;;;;5092039;28;20233;-71
2021/06/16 12:44:32;;;;;;;6.97;4.30;;;13.90;99.90;;;;;;5093838;28;20175;-71
2021/06/16 12:47:03;;;;;;;9.57;4.80;;;13.70;99.90;;;;;;5083655;28;20178;-73
2021/06/16 12:49:43;;;;;;;9.20;5.37;;;13.60;99.90;;;;;;5094179;28;20179;-67
2021/06/16 12:52:13;;;;;;;8.00;4.83;;;13.60;99.90;;;;;;5094151;28;20243;-69
2021/06/16 12:54:42;;;;;;;7.43;5.13;;;13.50;99.90;;;;;;5090907;28;20210;-70
2021/06/16 12:57:20;;;;;;;10.77;5.70;;;13.50;99.90;;;;;;5089202;28;20311;-69
2021/06/16 12:59:52;;;;;;;11.03;5.30;;;13.50;99.90;;;;;;5093504;28;20181;-71
2021/06/16 13:02:31;;;;;;;9.67;5.83;;;13.50;99.90;;;;;;5090748;28;20222;-70
2021/06/16 13:05:05;;;;;;;10.27;5.70;;;13.50;99.90;;;;;;5093368;28;20190;-69